createdAt,value
2023-05-23T00:00:15.670Z,99.90
2023-05-23T00:02:49.867Z,99.90
2023-05-23T00:05:22.146Z,99.90
2023-05-23T00:07:54.290Z,99.90
2023-05-23T00:10:26.878Z,99.90
2023-05-23T00:12:59.095Z,99.90
2023-05-23T00:15:31.270Z,99.90
2023-05-23T00:18:03.816Z,99.90
2023-05-23T00:20:37.611Z,99.90
2023-05-23T00:23:11.027Z,99.90
2023-05-23T00:25:48.503Z,99.90
2023-05-23T00:28:21.071Z,99.90
2023-05-23T00:30:53.290Z,99.90
2023-05-23T00:33:25.498Z,99.90
2023-05-23T00:35:57.668Z,99.90
2023-05-23T00:38:30.329Z,99.90
2023-05-23T00:41:02.706Z,99.90
2023-05-23T00:43:34.810Z,99.90
2023-05-23T00:46:07.656Z,99.90
2023-05-23T00:48:40.319Z,99.90
2023-05-23T00:51:12.542Z,99.90
2023-05-23T00:53:45.174Z,99.90
2023-05-23T00:56:17.388Z,99.90
2023-05-23T00:58:50.787Z,99.90
2023-05-23T01:01:23.153Z,99.90
2023-05-23T01:03:56.948Z,99.90
2023-05-23T01:06:30.815Z,99.90
2023-05-23T01:09:03.859Z,99.90
2023-05-23T01:12:08.928Z,99.90
2023-05-23T01:14:49.290Z,99.90
2023-05-23T01:17:33.593Z,99.90
2023-05-23T01:20:12.934Z,99.90
2023-05-23T01:23:07.087Z,99.90
2023-05-23T01:26:12.868Z,99.90
2023-05-23T01:28:48.429Z,99.90
2023-05-23T01:31:22.499Z,99.90
2023-05-23T01:33:56.151Z,99.90
2023-05-23T01:36:28.339Z,99.90
2023-05-23T01:39:01.357Z,99.90
2023-05-23T01:41:33.691Z,99.90
2023-05-23T01:44:06.579Z,99.90
2023-05-23T01:46:39.832Z,99.90
2023-05-23T01:49:13.798Z,99.90
2023-05-23T01:51:46.761Z,99.90
2023-05-23T01:54:20.056Z,99.90
2023-05-23T01:56:52.463Z,99.90
2023-05-23T01:59:25.291Z,99.90
2023-05-23T02:01:57.611Z,99.90
2023-05-23T02:04:31.232Z,99.90
2023-05-23T02:07:04.209Z,99.90
2023-05-23T02:09:36.767Z,99.90
2023-05-23T02:12:10.241Z,99.90
2023-05-23T02:14:42.436Z,99.90
2023-05-23T02:17:17.168Z,99.90
2023-05-23T02:19:50.141Z,99.90
2023-05-23T02:22:26.014Z,99.90
2023-05-23T02:24:58.154Z,99.90
2023-05-23T02:27:30.345Z,99.90
2023-05-23T02:30:02.741Z,99.90
2023-05-23T02:32:37.970Z,99.90
2023-05-23T02:35:11.135Z,99.90
2023-05-23T02:37:43.352Z,99.90
2023-05-23T02:40:16.201Z,99.90
2023-05-23T02:42:48.372Z,99.90
2023-05-23T02:45:20.906Z,99.90
2023-05-23T02:47:53.228Z,99.90
2023-05-23T02:50:25.391Z,99.90
2023-05-23T02:52:57.516Z,99.90
2023-05-23T02:55:32.090Z,99.90
2023-05-23T02:58:06.122Z,99.90
2023-05-23T03:00:38.749Z,99.90
2023-05-23T03:03:12.293Z,99.90
2023-05-23T03:05:44.617Z,99.90
2023-05-23T03:08:16.976Z,99.90
2023-05-23T03:10:49.227Z,99.90
2023-05-23T03:13:21.519Z,99.90
2023-05-23T03:15:54.144Z,99.90
2023-05-23T03:18:26.522Z,99.90
2023-05-23T03:20:58.821Z,99.90
2023-05-23T03:23:31.483Z,99.90
2023-05-23T03:26:04.352Z,99.90
2023-05-23T03:28:37.180Z,99.90
2023-05-23T03:31:09.418Z,99.90
2023-05-23T03:33:41.746Z,99.90
2023-05-23T03:36:14.734Z,99.90
2023-05-23T03:38:46.950Z,99.90
2023-05-23T03:41:20.276Z,99.90
2023-05-23T03:43:52.762Z,99.90
2023-05-23T03:46:25.124Z,99.90
2023-05-23T03:48:58.477Z,99.90
2023-05-23T03:51:32.212Z,99.90
2023-05-23T03:54:04.832Z,99.90
2023-05-23T03:56:37.206Z,99.90
2023-05-23T03:59:10.201Z,99.90
2023-05-23T04:01:42.601Z,99.90
2023-05-23T04:04:17.671Z,99.90
2023-05-23T04:06:50.052Z,99.90
2023-05-23T04:09:22.686Z,99.90
2023-05-23T04:11:56.404Z,99.90
2023-05-23T04:14:29.746Z,99.90
2023-05-23T04:17:04.101Z,99.90
2023-05-23T04:19:36.959Z,99.90
2023-05-23T04:22:09.572Z,99.90
2023-05-23T04:24:41.958Z,99.90
2023-05-23T04:27:15.353Z,99.90
2023-05-23T04:29:48.232Z,99.90
2023-05-23T04:32:23.297Z,99.90
2023-05-23T04:34:57.198Z,99.90
2023-05-23T04:37:33.199Z,99.90
2023-05-23T04:40:07.829Z,99.90
2023-05-23T04:42:52.166Z,99.90
2023-05-23T04:45:37.617Z,99.90
2023-05-23T04:48:29.563Z,99.90
2023-05-23T04:51:06.813Z,99.90
2023-05-23T04:53:41.665Z,99.90
2023-05-23T04:56:19.876Z,99.90
2023-05-23T04:58:54.029Z,99.90
2023-05-23T05:01:26.717Z,99.90
2023-05-23T05:03:59.421Z,99.90
2023-05-23T05:06:31.869Z,99.90
2023-05-23T05:09:05.140Z,99.90
2023-05-23T05:11:37.496Z,99.90
2023-05-23T05:14:09.808Z,99.90
2023-05-23T05:16:43.076Z,99.90
2023-05-23T05:19:16.024Z,99.90
2023-05-23T05:21:49.066Z,99.90
2023-05-23T05:24:22.950Z,99.90
2023-05-23T05:26:55.947Z,99.90
2023-05-23T05:29:29.022Z,99.90
2023-05-23T05:32:01.588Z,99.90
2023-05-23T05:34:35.364Z,99.90
2023-05-23T05:37:07.586Z,99.90
2023-05-23T05:39:39.944Z,99.90
2023-05-23T05:42:13.104Z,99.90
2023-05-23T05:44:45.342Z,99.90
2023-05-23T05:47:18.496Z,99.90
2023-05-23T05:49:50.800Z,99.90
2023-05-23T05:52:23.524Z,99.90
2023-05-23T05:54:57.888Z,99.90
2023-05-23T05:57:30.268Z,99.90
2023-05-23T06:00:02.540Z,99.90
2023-05-23T06:02:36.879Z,99.90
2023-05-23T06:05:12.703Z,99.90
2023-05-23T06:07:45.027Z,99.90
2023-05-23T06:10:17.644Z,99.90
2023-05-23T06:12:50.605Z,99.90
2023-05-23T06:15:23.225Z,99.90
2023-05-23T06:17:56.009Z,99.90
2023-05-23T06:20:29.819Z,99.90
2023-05-23T06:23:05.808Z,99.90
2023-05-23T06:25:37.956Z,99.90
2023-05-23T06:28:11.650Z,99.90
2023-05-23T06:30:44.133Z,99.90
2023-05-23T06:33:17.300Z,99.90
2023-05-23T06:35:49.520Z,99.90
2023-05-23T06:38:21.890Z,99.90
2023-05-23T06:40:54.170Z,99.90
2023-05-23T06:43:26.622Z,99.90
2023-05-23T06:46:07.367Z,99.90
2023-05-23T06:48:39.680Z,99.90
2023-05-23T06:51:12.222Z,99.90
2023-05-23T06:53:44.490Z,99.90
2023-05-23T06:56:17.146Z,99.90
2023-05-23T06:58:59.690Z,99.90
2023-05-23T07:01:32.828Z,99.90
2023-05-23T07:04:05.851Z,99.90
2023-05-23T07:06:40.080Z,99.90
2023-05-23T07:09:13.881Z,99.90
2023-05-23T07:11:46.636Z,99.90
2023-05-23T07:14:20.999Z,99.90
2023-05-23T07:16:53.775Z,99.90
2023-05-23T07:19:26.166Z,99.90
2023-05-23T07:21:58.728Z,99.90
2023-05-23T07:24:32.443Z,99.90
2023-05-23T07:27:07.082Z,99.90
2023-05-23T07:29:41.417Z,99.90
2023-05-23T07:32:15.380Z,99.90
2023-05-23T07:34:49.065Z,99.90
2023-05-23T07:37:21.373Z,99.90
2023-05-23T07:39:54.340Z,99.90
2023-05-23T07:42:26.564Z,99.90
2023-05-23T07:44:58.885Z,99.90
2023-05-23T07:47:31.437Z,99.90
2023-05-23T07:50:04.096Z,99.90
2023-05-23T07:52:36.660Z,99.90
2023-05-23T07:55:11.008Z,99.90
2023-05-23T07:57:43.431Z,99.90
2023-05-23T08:00:16.539Z,99.90
2023-05-23T08:02:48.752Z,99.90
2023-05-23T08:05:27.814Z,99.90
2023-05-23T08:08:02.135Z,99.90
2023-05-23T08:10:34.352Z,99.90
2023-05-23T08:13:13.389Z,99.90
2023-05-23T08:15:58.980Z,99.90
2023-05-23T08:18:34.544Z,99.90
2023-05-23T08:21:07.196Z,99.90
2023-05-23T08:23:40.195Z,99.90
2023-05-23T08:26:12.545Z,99.90
2023-05-23T08:28:46.611Z,99.90
2023-05-23T08:31:18.908Z,99.90
2023-05-23T08:33:51.500Z,99.90
2023-05-23T08:36:23.968Z,99.90
2023-05-23T08:38:56.696Z,99.90
2023-05-23T08:41:38.176Z,99.90
2023-05-23T08:44:15.029Z,99.90
2023-05-23T08:46:53.993Z,99.90
2023-05-23T08:49:50.796Z,99.90
2023-05-23T08:52:25.323Z,99.90
2023-05-23T08:55:01.801Z,99.90
2023-05-23T08:57:37.186Z,99.90
2023-05-23T09:00:26.337Z,99.90
2023-05-23T09:02:58.745Z,99.90
2023-05-23T09:05:47.704Z,99.90
2023-05-23T09:08:21.279Z,99.90
2023-05-23T09:10:56.682Z,99.90
2023-05-23T09:13:32.354Z,99.90
2023-05-23T09:16:11.382Z,99.90
2023-05-23T09:18:51.223Z,99.90
2023-05-23T09:21:26.514Z,99.90
2023-05-23T09:24:14.380Z,99.90
2023-05-23T09:26:48.616Z,99.90
2023-05-23T09:29:22.170Z,99.90
2023-05-23T09:32:10.419Z,99.90
2023-05-23T09:34:58.381Z,99.90
2023-05-23T09:37:38.007Z,99.90
2023-05-23T09:40:13.475Z,99.90
2023-05-23T09:42:51.578Z,99.90
2023-05-23T09:45:31.417Z,99.90
2023-05-23T09:48:13.335Z,99.90
2023-05-23T09:50:47.240Z,99.90
2023-05-23T09:53:21.881Z,99.90
2023-05-23T09:55:56.400Z,99.90
2023-05-23T09:58:30.489Z,99.90
2023-05-23T10:01:04.028Z,99.90
2023-05-23T10:03:49.777Z,99.90
2023-05-23T10:06:27.135Z,99.90
2023-05-23T10:09:04.073Z,99.90
2023-05-23T10:11:37.145Z,99.90
2023-05-23T10:14:11.028Z,99.90
2023-05-23T10:17:18.962Z,99.90
2023-05-23T10:20:00.363Z,99.90
2023-05-23T10:22:33.935Z,99.90
2023-05-23T10:25:08.582Z,99.90
2023-05-23T10:27:41.708Z,99.90
2023-05-23T10:30:14.415Z,99.90
2023-05-23T10:32:47.136Z,99.90
2023-05-23T10:35:56.771Z,99.90
2023-05-23T10:38:59.728Z,99.90
2023-05-23T10:41:41.758Z,99.90
2023-05-23T10:44:32.560Z,99.90
2023-05-23T10:47:05.328Z,99.90
2023-05-23T10:49:45.597Z,99.90
2023-05-23T10:52:18.494Z,99.90
2023-05-23T10:54:53.084Z,99.90
2023-05-23T10:57:28.479Z,99.90
2023-05-23T11:00:02.364Z,99.90
2023-05-23T11:02:35.421Z,99.90
2023-05-23T11:05:22.722Z,99.90
2023-05-23T11:08:17.998Z,99.90
2023-05-23T11:10:54.009Z,99.90
2023-05-23T11:13:26.454Z,99.90
2023-05-23T11:15:58.695Z,99.90
2023-05-23T11:18:35.559Z,99.90
2023-05-23T11:21:07.825Z,99.90
2023-05-23T11:23:42.341Z,99.90
2023-05-23T11:26:31.599Z,99.70
2023-05-23T11:29:09.589Z,98.70
2023-05-23T11:31:41.758Z,97.90
2023-05-23T11:34:14.207Z,96.40
2023-05-23T11:36:47.103Z,96.20
2023-05-23T11:39:20.990Z,96.00
2023-05-23T11:42:00.605Z,95.90
2023-05-23T11:44:32.805Z,93.30
2023-05-23T11:47:06.999Z,93.40
2023-05-23T11:49:44.391Z,91.40
2023-05-23T11:52:16.563Z,90.70
2023-05-23T11:54:49.822Z,90.10
2023-05-23T11:57:22.091Z,85.10
2023-05-23T11:59:54.753Z,83.90
2023-05-23T12:02:28.930Z,85.60
2023-05-23T12:05:08.721Z,81.00
2023-05-23T12:07:42.890Z,80.40
2023-05-23T12:10:22.861Z,81.50
2023-05-23T12:12:56.224Z,81.70
2023-05-23T12:15:31.133Z,79.00
2023-05-23T12:18:03.558Z,79.00
2023-05-23T12:20:36.472Z,75.10
2023-05-23T12:23:08.660Z,75.40
2023-05-23T12:25:44.063Z,73.60
2023-05-23T12:28:16.482Z,73.50
2023-05-23T12:30:49.746Z,73.60
2023-05-23T12:33:22.046Z,72.80
2023-05-23T12:35:54.295Z,71.90
2023-05-23T12:38:29.985Z,73.10
2023-05-23T12:41:13.459Z,74.90
2023-05-23T12:43:52.632Z,75.70
2023-05-23T12:46:26.761Z,74.80
2023-05-23T12:48:59.712Z,75.30
2023-05-23T12:51:32.710Z,74.60
2023-05-23T12:54:04.986Z,74.80
2023-05-23T12:56:37.358Z,73.90
2023-05-23T12:59:09.692Z,73.60
2023-05-23T13:01:42.485Z,75.00
2023-05-23T13:04:15.182Z,75.90
2023-05-23T13:06:47.337Z,77.20
2023-05-23T13:09:19.531Z,78.80
2023-05-23T13:11:51.773Z,80.30
2023-05-23T13:14:24.099Z,80.70
2023-05-23T13:16:57.633Z,80.20
2023-05-23T13:19:29.950Z,79.30
2023-05-23T13:22:04.640Z,81.00
2023-05-23T13:24:38.719Z,81.00
2023-05-23T13:27:11.019Z,78.10
2023-05-23T13:29:43.380Z,77.80
2023-05-23T13:32:15.774Z,80.60
2023-05-23T13:34:48.513Z,82.20
2023-05-23T13:37:20.677Z,83.90
2023-05-23T13:39:52.892Z,84.50
2023-05-23T13:42:25.489Z,83.70
2023-05-23T13:44:57.844Z,81.80
2023-05-23T13:47:31.748Z,80.30
2023-05-23T13:50:05.397Z,78.80
2023-05-23T13:52:38.068Z,77.90
2023-05-23T13:55:11.296Z,82.30
2023-05-23T13:57:43.481Z,86.40
2023-05-23T14:00:16.565Z,90.10
2023-05-23T14:02:48.791Z,91.40
2023-05-23T14:05:22.397Z,92.70
2023-05-23T14:07:54.620Z,93.90
2023-05-23T14:10:26.792Z,94.60
2023-05-23T14:12:59.610Z,95.40
2023-05-23T14:15:34.359Z,96.20
2023-05-23T14:18:06.865Z,97.50
2023-05-23T14:20:39.117Z,98.70
2023-05-23T14:23:11.394Z,99.90
2023-05-23T14:25:44.222Z,99.90
2023-05-23T14:28:16.781Z,99.90
2023-05-23T14:30:49.470Z,99.90
2023-05-23T14:33:22.291Z,99.90
2023-05-23T14:35:54.866Z,99.90
2023-05-23T14:38:27.787Z,99.90
2023-05-23T14:41:00.242Z,99.90
2023-05-23T14:43:33.618Z,99.90
2023-05-23T14:46:06.638Z,99.90
2023-05-23T14:48:39.442Z,99.90
2023-05-23T14:51:16.452Z,99.90
2023-05-23T14:53:57.333Z,99.80
2023-05-23T14:56:29.664Z,99.70
2023-05-23T14:59:02.810Z,99.90
2023-05-23T15:01:36.620Z,99.90
2023-05-23T15:04:14.818Z,99.90
2023-05-23T15:06:51.355Z,99.90
2023-05-23T15:09:23.839Z,99.90
2023-05-23T15:11:56.476Z,99.90
2023-05-23T15:14:32.272Z,99.90
2023-05-23T15:17:08.209Z,99.90
2023-05-23T15:19:43.287Z,99.90
2023-05-23T15:22:33.544Z,99.90
2023-05-23T15:25:09.052Z,99.90
2023-05-23T15:27:41.309Z,99.90
2023-05-23T15:30:14.061Z,99.90
2023-05-23T15:32:46.632Z,99.90
2023-05-23T15:35:19.892Z,99.90
2023-05-23T15:37:52.319Z,99.90
2023-05-23T15:40:24.538Z,99.90
2023-05-23T15:42:57.150Z,99.90
2023-05-23T15:45:29.274Z,99.90
2023-05-23T15:48:01.755Z,99.90
2023-05-23T15:50:34.370Z,99.90
2023-05-23T15:53:06.581Z,99.90
2023-05-23T15:55:41.930Z,99.90
2023-05-23T15:58:15.405Z,99.90
2023-05-23T16:00:47.599Z,99.90
2023-05-23T16:03:20.045Z,99.90
2023-05-23T16:05:52.565Z,99.90
2023-05-23T16:08:24.939Z,99.90
2023-05-23T16:10:57.953Z,99.90
2023-05-23T16:13:30.804Z,99.90
2023-05-23T16:16:04.687Z,99.90
2023-05-23T16:18:37.023Z,99.90
2023-05-23T16:21:09.173Z,99.90
2023-05-23T16:23:41.386Z,99.90
2023-05-23T16:26:14.067Z,99.90
2023-05-23T16:28:46.552Z,99.90
2023-05-23T16:31:26.541Z,99.90
2023-05-23T16:33:59.508Z,99.90
2023-05-23T16:36:33.227Z,99.90
2023-05-23T16:39:05.372Z,99.90
2023-05-23T16:41:39.431Z,99.90
2023-05-23T16:44:12.142Z,99.90
2023-05-23T16:46:44.590Z,99.90
2023-05-23T16:49:17.048Z,99.90
2023-05-23T16:51:49.232Z,99.90
2023-05-23T16:54:21.567Z,99.90
2023-05-23T16:56:53.943Z,99.90
2023-05-23T16:59:26.348Z,99.90
2023-05-23T17:01:58.697Z,99.90
2023-05-23T17:04:30.961Z,99.90
2023-05-23T17:07:03.353Z,99.90
2023-05-23T17:09:39.385Z,99.90
2023-05-23T17:12:13.572Z,99.80
2023-05-23T17:14:46.631Z,99.20
2023-05-23T17:17:18.848Z,99.20
2023-05-23T17:19:51.633Z,98.50
2023-05-23T17:22:24.050Z,98.00
2023-05-23T17:24:56.359Z,98.20
2023-05-23T17:27:28.698Z,98.30
2023-05-23T17:30:05.388Z,96.80
2023-05-23T17:32:39.438Z,97.20
2023-05-23T17:35:12.291Z,97.40
2023-05-23T17:37:45.301Z,97.30
2023-05-23T17:40:17.798Z,97.10
2023-05-23T17:42:50.076Z,97.30
2023-05-23T17:45:22.398Z,96.80
2023-05-23T17:47:55.549Z,96.50
2023-05-23T17:50:28.607Z,96.70
2023-05-23T17:53:03.448Z,96.80
2023-05-23T17:55:36.556Z,96.90
2023-05-23T17:58:09.690Z,96.90
2023-05-23T18:00:42.559Z,96.70
2023-05-23T18:03:16.023Z,96.60
2023-05-23T18:05:48.340Z,96.00
2023-05-23T18:08:20.798Z,96.20
2023-05-23T18:10:53.468Z,95.40
2023-05-23T18:13:25.732Z,95.60
2023-05-23T18:15:58.119Z,95.20
2023-05-23T18:18:30.398Z,94.80
2023-05-23T18:21:03.017Z,94.80
2023-05-23T18:23:35.798Z,94.70
2023-05-23T18:26:08.142Z,94.50
2023-05-23T18:28:40.317Z,93.90
2023-05-23T18:31:12.788Z,94.10
2023-05-23T18:33:45.387Z,93.70
2023-05-23T18:36:17.984Z,93.90
2023-05-23T18:38:50.770Z,93.20
2023-05-23T18:41:24.413Z,93.70
2023-05-23T18:43:56.819Z,93.50
2023-05-23T18:46:30.969Z,93.20
2023-05-23T18:49:03.608Z,93.50
2023-05-23T18:51:35.790Z,93.50
2023-05-23T18:54:07.954Z,93.60
2023-05-23T18:56:40.805Z,93.80
2023-05-23T18:59:15.959Z,93.90
2023-05-23T19:01:48.506Z,94.40
2023-05-23T19:04:21.762Z,94.40
2023-05-23T19:06:54.137Z,94.70
2023-05-23T19:09:26.548Z,95.00
2023-05-23T19:11:59.303Z,95.00
2023-05-23T19:14:31.650Z,94.90
2023-05-23T19:17:06.062Z,95.00
2023-05-23T19:19:38.354Z,94.70
2023-05-23T19:22:11.423Z,94.60
2023-05-23T19:24:43.796Z,94.60
2023-05-23T19:27:16.864Z,95.10
2023-05-23T19:29:49.766Z,94.60
2023-05-23T19:32:22.142Z,95.00
2023-05-23T19:34:55.252Z,95.00
2023-05-23T19:37:27.798Z,95.30
2023-05-23T19:40:01.900Z,95.30
2023-05-23T19:42:34.067Z,95.40
2023-05-23T19:45:07.449Z,95.80
2023-05-23T19:47:40.524Z,96.00
2023-05-23T19:50:13.381Z,96.20
2023-05-23T19:52:45.605Z,96.50
2023-05-23T19:55:17.807Z,96.60
2023-05-23T19:57:50.296Z,96.90
2023-05-23T20:00:22.630Z,97.20
2023-05-23T20:02:56.811Z,97.50
2023-05-23T20:05:29.344Z,98.10
2023-05-23T20:08:01.762Z,98.20
2023-05-23T20:10:34.060Z,98.60
2023-05-23T20:13:07.029Z,99.10
2023-05-23T20:15:40.656Z,99.00
2023-05-23T20:18:13.141Z,99.20
2023-05-23T20:20:45.774Z,99.70
2023-05-23T20:23:18.702Z,99.80
2023-05-23T20:25:51.879Z,99.90
2023-05-23T20:28:24.113Z,99.90
2023-05-23T20:30:56.899Z,99.90
2023-05-23T20:33:29.073Z,99.90
2023-05-23T20:36:01.811Z,99.90
2023-05-23T20:38:34.469Z,99.90
2023-05-23T20:41:07.711Z,99.90
2023-05-23T20:43:40.732Z,99.90
2023-05-23T20:46:16.097Z,99.90
2023-05-23T20:48:48.389Z,99.90
2023-05-23T20:51:22.584Z,99.90
2023-05-23T20:53:54.798Z,99.90
2023-05-23T20:56:27.592Z,99.90
2023-05-23T20:59:03.643Z,99.90
2023-05-23T21:01:36.073Z,99.90
2023-05-23T21:04:08.399Z,99.90
2023-05-23T21:06:40.947Z,99.90
2023-05-23T21:09:13.916Z,99.90
2023-05-23T21:11:46.253Z,99.90
2023-05-23T21:14:18.579Z,99.90
2023-05-23T21:16:51.828Z,99.90
2023-05-23T21:19:24.108Z,99.90
2023-05-23T21:21:56.426Z,99.90
2023-05-23T21:24:29.634Z,99.90
2023-05-23T21:27:03.117Z,99.90
2023-05-23T21:29:35.485Z,99.90
2023-05-23T21:32:08.146Z,99.90
2023-05-23T21:34:40.813Z,99.90
2023-05-23T21:37:13.328Z,99.90
2023-05-23T21:39:52.091Z,99.90
2023-05-23T21:42:25.712Z,99.90
2023-05-23T21:44:58.364Z,99.90
2023-05-23T21:47:30.619Z,99.90
2023-05-23T21:50:04.417Z,99.90
2023-05-23T21:52:36.568Z,99.90
2023-05-23T21:55:08.727Z,99.90
2023-05-23T21:57:43.609Z,99.90
2023-05-23T22:00:18.954Z,99.90
2023-05-23T22:02:51.953Z,99.90
2023-05-23T22:05:24.167Z,99.90
2023-05-23T22:07:56.548Z,99.90
2023-05-23T22:10:29.100Z,99.90
2023-05-23T22:13:01.241Z,99.90
2023-05-23T22:15:35.577Z,99.90
2023-05-23T22:18:07.956Z,99.90
2023-05-23T22:20:40.808Z,99.90
2023-05-23T22:23:17.958Z,99.90
2023-05-23T22:25:50.385Z,99.90
2023-05-23T22:28:22.608Z,99.90
2023-05-23T22:30:54.736Z,99.90
2023-05-23T22:33:26.985Z,99.90
2023-05-23T22:35:59.142Z,99.90
2023-05-23T22:38:31.585Z,99.90
2023-05-23T22:41:04.439Z,99.90
2023-05-23T22:43:37.358Z,99.90
2023-05-23T22:46:09.968Z,99.90
2023-05-23T22:48:42.166Z,99.90
2023-05-23T22:51:14.812Z,99.90
2023-05-23T22:53:47.278Z,99.90
2023-05-23T22:56:19.579Z,99.90
2023-05-23T22:58:52.197Z,99.90
2023-05-23T23:01:24.667Z,99.90
2023-05-23T23:03:56.870Z,99.90
2023-05-23T23:06:29.484Z,99.90
2023-05-23T23:09:01.620Z,99.90
2023-05-23T23:11:33.778Z,99.90
2023-05-23T23:14:06.999Z,99.90
2023-05-23T23:16:39.640Z,99.90
2023-05-23T23:19:13.069Z,99.90
2023-05-23T23:21:45.351Z,99.90
2023-05-23T23:24:18.227Z,99.90
2023-05-23T23:26:50.341Z,99.90
2023-05-23T23:29:22.672Z,99.90
2023-05-23T23:31:57.646Z,99.90
2023-05-23T23:34:29.750Z,99.90
2023-05-23T23:37:01.969Z,99.90
2023-05-23T23:39:34.132Z,99.90
2023-05-23T23:42:06.889Z,99.90
2023-05-23T23:44:39.028Z,99.90
2023-05-23T23:47:11.483Z,99.90
2023-05-23T23:49:43.621Z,99.90
2023-05-23T23:52:16.445Z,99.90
2023-05-23T23:54:48.589Z,99.90
2023-05-23T23:57:20.864Z,99.90
2023-05-23T23:59:53.103Z,99.90
